createdAt,value
2023-08-05T00:00:49.078Z,54.69
2023-08-05T00:03:28.289Z,54.77
2023-08-05T00:05:56.804Z,54.88
2023-08-05T00:08:25.927Z,54.80
2023-08-05T00:10:54.942Z,55.05
2023-08-05T00:13:23.397Z,55.29
2023-08-05T00:15:52.537Z,55.39
2023-08-05T00:18:21.116Z,55.71
2023-08-05T00:20:50.973Z,55.86
2023-08-05T00:23:20.744Z,55.88
2023-08-05T00:25:49.106Z,56.11
2023-08-05T00:28:17.477Z,56.32
2023-08-05T00:30:46.051Z,56.44
2023-08-05T00:33:14.492Z,56.47
2023-08-05T00:35:42.861Z,56.86
2023-08-05T00:38:11.393Z,57.31
2023-08-05T00:40:39.932Z,57.40
2023-08-05T00:43:08.278Z,57.67
2023-08-05T00:45:36.899Z,57.29
2023-08-05T00:48:05.639Z,57.86
2023-08-05T00:50:35.353Z,58.19
2023-08-05T00:53:03.920Z,58.44
2023-08-05T00:55:32.628Z,58.52
2023-08-05T00:58:01.065Z,58.82
2023-08-05T01:00:29.464Z,59.11
2023-08-05T01:02:58.690Z,59.12
2023-08-05T01:05:27.727Z,59.48
2023-08-05T01:07:56.403Z,59.71
2023-08-05T01:10:25.389Z,59.82
2023-08-05T01:12:53.762Z,59.89
2023-08-05T01:15:22.209Z,59.83
2023-08-05T01:17:54.775Z,59.99
2023-08-05T01:20:28.223Z,60.22
2023-08-05T01:22:59.994Z,60.44
2023-08-05T01:25:30.342Z,60.57
2023-08-05T01:28:00.506Z,60.73
2023-08-05T01:30:30.352Z,61.21
2023-08-05T01:33:01.005Z,61.32
2023-08-05T01:35:29.621Z,61.54
2023-08-05T01:37:58.113Z,61.67
2023-08-05T01:40:29.702Z,61.79
2023-08-05T01:43:01.803Z,61.88
2023-08-05T01:45:30.196Z,61.72
2023-08-05T01:47:58.921Z,61.91
2023-08-05T01:50:27.464Z,62.10
2023-08-05T01:52:55.891Z,62.35
2023-08-05T01:55:24.340Z,62.31
2023-08-05T01:57:52.720Z,62.40
2023-08-05T02:00:24.329Z,62.69
2023-08-05T02:02:53.006Z,63.18
2023-08-05T02:05:21.561Z,63.25
2023-08-05T02:07:50.064Z,63.44
2023-08-05T02:10:18.584Z,63.31
2023-08-05T02:12:47.093Z,63.75
2023-08-05T02:15:15.540Z,63.93
2023-08-05T02:17:43.991Z,64.18
2023-08-05T02:20:12.867Z,64.49
2023-08-05T02:22:41.475Z,64.50
2023-08-05T02:25:10.013Z,64.58
2023-08-05T02:27:38.414Z,64.65
2023-08-05T02:30:07.732Z,65.00
2023-08-05T02:32:36.200Z,65.72
2023-08-05T02:35:05.164Z,66.02
2023-08-05T02:37:33.569Z,66.42
2023-08-05T02:40:01.989Z,67.07
2023-08-05T02:42:30.425Z,67.46
2023-08-05T02:44:59.568Z,68.08
2023-08-05T02:47:27.982Z,68.60
2023-08-05T02:49:57.700Z,69.16
2023-08-05T02:52:26.453Z,69.22
2023-08-05T02:54:54.988Z,69.54
2023-08-05T02:57:23.449Z,70.00
2023-08-05T02:59:51.942Z,70.64
2023-08-05T03:02:20.415Z,71.39
2023-08-05T03:04:48.888Z,71.84
2023-08-05T03:07:17.537Z,72.51
2023-08-05T03:09:45.831Z,73.01
2023-08-05T03:12:14.250Z,73.33
2023-08-05T03:14:42.807Z,73.29
2023-08-05T03:17:11.848Z,73.61
2023-08-05T03:19:40.424Z,73.93
2023-08-05T03:22:09.380Z,74.20
2023-08-05T03:24:39.763Z,74.33
2023-08-05T03:27:08.780Z,74.60
2023-08-05T03:29:38.099Z,75.25
2023-08-05T03:32:07.361Z,75.87
2023-08-05T03:34:35.989Z,75.85
2023-08-05T03:37:05.430Z,76.31
2023-08-05T03:39:34.002Z,77.08
2023-08-05T03:42:02.436Z,77.28
2023-08-05T03:44:31.431Z,78.04
2023-08-05T03:47:00.520Z,78.12
2023-08-05T03:49:28.954Z,78.35
2023-08-05T03:51:57.631Z,78.66
2023-08-05T03:54:26.035Z,78.87
2023-08-05T03:56:54.475Z,79.59
2023-08-05T03:59:24.640Z,80.19
2023-08-05T04:01:53.620Z,80.63
2023-08-05T04:04:22.577Z,80.71
2023-08-05T04:06:51.337Z,80.31
2023-08-05T04:09:20.672Z,80.28
2023-08-05T04:11:52.641Z,80.05
2023-08-05T04:14:22.178Z,79.44
2023-08-05T04:16:50.911Z,79.08
2023-08-05T04:19:21.814Z,78.72
2023-08-05T04:21:52.951Z,78.52
2023-08-05T04:24:23.820Z,78.69
2023-08-05T04:26:52.646Z,78.79
2023-08-05T04:29:24.263Z,79.10
2023-08-05T04:31:53.885Z,79.05
2023-08-05T04:34:22.333Z,78.83
2023-08-05T04:36:52.112Z,79.30
2023-08-05T04:39:21.476Z,79.09
2023-08-05T04:41:49.875Z,79.05
2023-08-05T04:44:19.569Z,79.26
2023-08-05T04:46:48.059Z,79.01
2023-08-05T04:49:16.585Z,78.87
2023-08-05T04:51:45.074Z,79.11
2023-08-05T04:54:13.533Z,78.70
2023-08-05T04:56:42.013Z,78.39
2023-08-05T04:59:10.468Z,77.93
2023-08-05T05:01:38.825Z,77.72
2023-08-05T05:04:07.331Z,77.42
2023-08-05T05:06:35.743Z,77.31
2023-08-05T05:09:05.062Z,77.56
2023-08-05T05:11:33.436Z,77.77
2023-08-05T05:14:01.926Z,76.94
2023-08-05T05:16:30.330Z,76.48
2023-08-05T05:18:58.714Z,76.63
2023-08-05T05:21:27.135Z,76.74
2023-08-05T05:23:55.589Z,76.94
2023-08-05T05:26:24.069Z,76.64
2023-08-05T05:28:52.527Z,76.79
2023-08-05T05:31:23.865Z,76.08
2023-08-05T05:33:52.755Z,75.40
2023-08-05T05:36:21.155Z,74.74
2023-08-05T05:38:49.590Z,74.51
2023-08-05T05:41:18.169Z,74.16
2023-08-05T05:43:46.597Z,74.25
2023-08-05T05:46:16.113Z,74.10
2023-08-05T05:48:44.533Z,73.74
2023-08-05T05:51:14.155Z,72.55
2023-08-05T05:53:42.593Z,71.94
2023-08-05T05:56:11.222Z,71.76
2023-08-05T05:58:39.654Z,71.54
2023-08-05T06:01:08.096Z,70.85
2023-08-05T06:03:36.688Z,69.74
2023-08-05T06:06:05.286Z,69.08
2023-08-05T06:08:35.293Z,68.23
2023-08-05T06:11:04.730Z,68.95
2023-08-05T06:13:33.531Z,69.13
2023-08-05T06:16:02.230Z,68.45
2023-08-05T06:18:30.689Z,67.54
2023-08-05T06:20:59.112Z,66.58
2023-08-05T06:23:27.825Z,66.66
2023-08-05T06:25:56.250Z,66.49
2023-08-05T06:28:24.870Z,65.73
2023-08-05T06:30:56.431Z,65.41
2023-08-05T06:33:24.856Z,63.91
2023-08-05T06:35:53.262Z,63.57
2023-08-05T06:38:21.791Z,62.88
2023-08-05T06:40:52.841Z,61.93
2023-08-05T06:43:21.497Z,62.15
2023-08-05T06:45:49.929Z,61.32
2023-08-05T06:48:18.328Z,61.00
2023-08-05T06:50:46.800Z,60.72
2023-08-05T06:53:15.227Z,60.66
2023-08-05T06:55:43.558Z,60.34
2023-08-05T06:58:11.954Z,60.12
2023-08-05T07:00:40.405Z,60.43
2023-08-05T07:03:08.794Z,59.62
2023-08-05T07:05:37.726Z,58.30
2023-08-05T07:08:06.478Z,58.80
2023-08-05T07:10:34.865Z,58.78
2023-08-05T07:13:07.184Z,58.12
2023-08-05T07:15:38.477Z,57.08
2023-08-05T07:18:06.945Z,56.80
2023-08-05T07:20:35.409Z,57.48
2023-08-05T07:23:03.784Z,57.48
2023-08-05T07:25:32.259Z,57.03
2023-08-05T07:28:00.668Z,57.63
2023-08-05T07:30:29.309Z,57.57
2023-08-05T07:32:57.860Z,57.73
2023-08-05T07:35:29.805Z,57.96
2023-08-05T07:37:58.260Z,57.77
2023-08-05T07:40:27.264Z,57.24
2023-08-05T07:42:55.744Z,56.06
2023-08-05T07:45:24.358Z,55.22
2023-08-05T07:47:53.380Z,54.76
2023-08-05T07:50:24.204Z,55.12
2023-08-05T07:52:52.857Z,54.87
2023-08-05T07:55:21.429Z,54.64
2023-08-05T07:57:49.847Z,55.14
2023-08-05T08:00:18.484Z,54.12
2023-08-05T08:02:46.925Z,53.92
2023-08-05T08:05:15.949Z,53.42
2023-08-05T08:07:48.274Z,53.53
2023-08-05T08:10:17.453Z,53.70
2023-08-05T08:12:48.047Z,53.18
2023-08-05T08:15:16.608Z,52.36
2023-08-05T08:17:45.127Z,51.15
2023-08-05T08:20:13.904Z,49.74
2023-08-05T08:22:42.248Z,50.83
2023-08-05T08:25:10.718Z,51.01
2023-08-05T08:27:39.154Z,50.45
2023-08-05T08:30:08.024Z,50.77
2023-08-05T08:32:36.490Z,50.83
2023-08-05T08:35:05.459Z,50.04
2023-08-05T08:37:34.161Z,49.07
2023-08-05T08:40:04.081Z,48.64
2023-08-05T08:42:32.604Z,48.83
2023-08-05T08:45:01.773Z,47.76
2023-08-05T08:47:30.376Z,47.85
2023-08-05T08:49:59.424Z,47.76
2023-08-05T08:52:28.658Z,47.37
2023-08-05T08:54:57.326Z,46.70
2023-08-05T08:57:25.724Z,47.57
2023-08-05T08:59:54.069Z,47.51
2023-08-05T09:02:26.400Z,47.60
2023-08-05T09:04:55.639Z,46.68
2023-08-05T09:07:28.618Z,45.95
2023-08-05T09:09:58.845Z,45.16
2023-08-05T09:12:27.381Z,45.90
2023-08-05T09:14:57.972Z,46.39
2023-08-05T09:17:28.313Z,46.19
2023-08-05T09:19:56.813Z,45.95
2023-08-05T09:22:25.404Z,44.45
2023-08-05T09:25:02.134Z,44.10
2023-08-05T09:27:52.195Z,44.03
2023-08-05T09:30:25.333Z,45.04
2023-08-05T09:32:54.342Z,44.53
2023-08-05T09:35:25.032Z,44.01
2023-08-05T09:37:54.510Z,44.97
2023-08-05T09:40:27.328Z,44.78
2023-08-05T09:43:01.351Z,44.81
2023-08-05T09:45:31.949Z,45.03
2023-08-05T09:48:11.861Z,44.57
2023-08-05T09:50:43.030Z,44.17
2023-08-05T09:53:15.226Z,44.19
2023-08-05T09:55:45.206Z,44.39
2023-08-05T09:58:14.692Z,44.82
2023-08-05T10:00:43.970Z,43.14
2023-08-05T10:03:15.401Z,42.46
2023-08-05T10:05:46.922Z,42.90
2023-08-05T10:08:15.575Z,42.68
2023-08-05T10:10:44.325Z,42.92
2023-08-05T10:13:21.529Z,42.17
2023-08-05T10:15:52.641Z,42.39
2023-08-05T10:18:22.191Z,42.56
2023-08-05T10:20:52.550Z,42.21
2023-08-05T10:23:25.112Z,42.49
2023-08-05T10:26:01.628Z,42.81
2023-08-05T10:28:35.923Z,43.12
2023-08-05T10:31:05.838Z,42.10
2023-08-05T10:34:10.185Z,42.08
2023-08-05T10:36:43.989Z,41.24
2023-08-05T10:39:44.784Z,40.69
2023-08-05T10:42:22.040Z,40.24
2023-08-05T10:44:51.276Z,41.01
2023-08-05T10:47:22.346Z,40.96
2023-08-05T10:50:03.449Z,40.44
2023-08-05T10:52:36.636Z,40.49
2023-08-05T10:55:09.687Z,40.18
2023-08-05T10:57:40.617Z,39.83
2023-08-05T11:00:18.290Z,39.82
2023-08-05T11:02:48.652Z,39.57
2023-08-05T11:05:17.961Z,39.74
2023-08-05T11:07:47.078Z,39.19
2023-08-05T11:10:15.466Z,38.69
2023-08-05T11:12:43.958Z,38.35
2023-08-05T11:15:12.336Z,38.14
2023-08-05T11:17:57.261Z,37.99
2023-08-05T11:20:33.138Z,37.29
2023-08-05T11:23:02.162Z,37.65
2023-08-05T11:25:31.349Z,37.36
2023-08-05T11:28:00.219Z,36.97
2023-08-05T11:30:29.717Z,36.38
2023-08-05T11:32:59.759Z,36.81
2023-08-05T11:35:28.401Z,36.40
2023-08-05T11:37:58.288Z,35.79
2023-08-05T11:40:26.911Z,35.15
2023-08-05T11:42:56.975Z,34.69
2023-08-05T11:45:25.748Z,34.52
2023-08-05T11:47:54.286Z,35.36
2023-08-05T11:50:33.828Z,35.17
2023-08-05T11:53:09.029Z,34.60
2023-08-05T11:55:38.375Z,34.51
2023-08-05T11:58:07.702Z,34.40
2023-08-05T12:00:36.111Z,34.44
2023-08-05T12:03:05.632Z,34.70
2023-08-05T12:05:34.316Z,35.05
2023-08-05T12:08:02.808Z,35.08
2023-08-05T12:10:31.437Z,34.22
2023-08-05T12:13:03.085Z,33.06
2023-08-05T12:15:31.815Z,32.68
2023-08-05T12:18:02.568Z,32.49
2023-08-05T12:20:37.978Z,31.99
2023-08-05T12:23:08.947Z,31.62
2023-08-05T12:25:37.305Z,31.08
2023-08-05T12:28:06.941Z,30.70
2023-08-05T12:30:35.625Z,30.55
2023-08-05T12:33:07.536Z,30.66
2023-08-05T12:35:36.984Z,30.35
2023-08-05T12:38:05.394Z,30.16
2023-08-05T12:40:33.942Z,30.88
2023-08-05T12:43:02.461Z,30.85
2023-08-05T12:45:30.935Z,30.05
2023-08-05T12:47:59.757Z,29.55
2023-08-05T12:50:28.379Z,29.36
2023-08-05T12:52:56.938Z,28.74
2023-08-05T12:55:25.299Z,28.65
2023-08-05T12:57:53.693Z,28.10
2023-08-05T13:00:22.074Z,27.78
2023-08-05T13:02:50.569Z,28.32
2023-08-05T13:05:19.215Z,27.58
2023-08-05T13:07:47.695Z,27.05
2023-08-05T13:10:16.022Z,26.52
2023-08-05T13:12:44.407Z,26.14
2023-08-05T13:15:12.904Z,26.12
2023-08-05T13:17:41.358Z,26.42
2023-08-05T13:20:09.939Z,25.83
2023-08-05T13:22:38.360Z,25.80
2023-08-05T13:25:07.010Z,24.51
2023-08-05T13:27:35.789Z,24.31
2023-08-05T13:30:04.535Z,23.91
2023-08-05T13:32:32.957Z,24.02
2023-08-05T13:35:01.380Z,23.72
2023-08-05T13:37:29.806Z,23.56
2023-08-05T13:39:58.254Z,23.43
2023-08-05T13:42:26.806Z,23.31
2023-08-05T13:44:55.214Z,23.48
2023-08-05T13:47:23.708Z,23.69
2023-08-05T13:49:52.102Z,23.40
2023-08-05T13:52:20.531Z,23.42
2023-08-05T13:54:49.016Z,23.19
2023-08-05T13:57:17.441Z,22.93
2023-08-05T13:59:45.799Z,22.50
2023-08-05T14:02:14.231Z,22.72
2023-08-05T14:04:45.824Z,22.66
2023-08-05T14:07:14.217Z,22.62
2023-08-05T14:09:42.671Z,22.15
2023-08-05T14:12:11.129Z,21.95
2023-08-05T14:14:39.620Z,22.34
2023-08-05T14:17:08.016Z,22.24
2023-08-05T14:19:36.556Z,22.35
2023-08-05T14:22:05.252Z,22.28
2023-08-05T14:24:33.656Z,22.27
2023-08-05T14:27:02.252Z,22.00
2023-08-05T14:29:30.645Z,21.79
2023-08-05T14:31:59.123Z,21.85
2023-08-05T14:34:30.732Z,21.52
2023-08-05T14:36:59.066Z,20.33
2023-08-05T14:39:27.569Z,20.48
2023-08-05T14:41:56.199Z,20.62
2023-08-05T14:44:25.494Z,20.54
2023-08-05T14:46:53.968Z,20.71
2023-08-05T14:49:22.325Z,20.55
2023-08-05T14:51:51.230Z,20.60
2023-08-05T14:54:19.978Z,20.65
2023-08-05T14:56:48.637Z,20.13
2023-08-05T14:59:17.144Z,19.55
2023-08-05T15:01:45.548Z,19.70
2023-08-05T15:04:13.996Z,19.51
2023-08-05T15:06:42.435Z,19.32
2023-08-05T15:09:12.448Z,19.14
2023-08-05T15:11:40.865Z,19.58
2023-08-05T15:14:10.029Z,19.36
2023-08-05T15:16:38.444Z,19.85
2023-08-05T15:19:06.954Z,20.01
2023-08-05T15:21:35.377Z,20.14
2023-08-05T15:24:03.970Z,20.46
2023-08-05T15:26:32.443Z,20.77
2023-08-05T15:29:04.599Z,21.34
2023-08-05T15:31:33.066Z,21.99
2023-08-05T15:34:01.409Z,21.94
2023-08-05T15:36:29.912Z,22.04
2023-08-05T15:38:58.327Z,22.40
2023-08-05T15:41:26.845Z,22.67
2023-08-05T15:43:55.333Z,22.92
2023-08-05T15:46:23.783Z,23.30
2023-08-05T15:48:52.196Z,22.99
2023-08-05T15:51:22.638Z,23.13
2023-08-05T15:53:50.980Z,23.46
2023-08-05T15:56:19.551Z,23.62
2023-08-05T15:58:48.124Z,23.77
2023-08-05T16:01:16.654Z,23.72
2023-08-05T16:03:45.078Z,23.79
2023-08-05T16:06:13.831Z,24.09
2023-08-05T16:08:42.256Z,23.90
2023-08-05T16:11:13.756Z,24.03
2023-08-05T16:13:42.245Z,23.83
2023-08-05T16:16:12.741Z,24.01
2023-08-05T16:18:41.308Z,24.41
2023-08-05T16:21:21.685Z,24.68
2023-08-05T16:23:55.575Z,25.08
2023-08-05T16:26:25.793Z,25.47
2023-08-05T16:28:54.972Z,25.89
2023-08-05T16:31:25.376Z,26.16
2023-08-05T16:33:53.918Z,26.56
2023-08-05T16:36:23.882Z,26.86
2023-08-05T16:38:52.583Z,26.74
2023-08-05T16:41:22.894Z,26.91
2023-08-05T16:43:51.932Z,27.08
2023-08-05T16:46:22.534Z,27.27
2023-08-05T16:48:52.756Z,27.36
2023-08-05T16:51:21.158Z,27.26
2023-08-05T16:53:49.519Z,27.34
2023-08-05T16:56:17.927Z,27.26
2023-08-05T16:58:46.613Z,27.34
2023-08-05T17:01:15.176Z,27.51
2023-08-05T17:03:43.700Z,27.67
2023-08-05T17:06:12.034Z,28.03
2023-08-05T17:08:40.789Z,27.78
2023-08-05T17:11:09.672Z,27.76
2023-08-05T17:13:38.033Z,27.83
2023-08-05T17:16:06.500Z,27.91
2023-08-05T17:18:34.928Z,27.86
2023-08-05T17:21:03.379Z,27.95
2023-08-05T17:23:31.883Z,28.18
2023-08-05T17:26:00.315Z,28.37
2023-08-05T17:28:28.689Z,28.41
2023-08-05T17:30:57.215Z,28.28
2023-08-05T17:33:25.656Z,28.49
2023-08-05T17:35:54.148Z,28.68
2023-08-05T17:38:24.090Z,28.64
2023-08-05T17:40:53.801Z,28.75
2023-08-05T17:43:22.358Z,28.95
2023-08-05T17:46:00.302Z,29.02
2023-08-05T17:48:28.794Z,29.13
2023-08-05T17:50:59.151Z,29.17
2023-08-05T17:53:27.695Z,29.07
2023-08-05T17:55:56.144Z,29.39
2023-08-05T17:58:24.601Z,29.53
2023-08-05T18:00:53.287Z,29.75
2023-08-05T18:03:21.908Z,30.01
2023-08-05T18:05:54.951Z,30.14
2023-08-05T18:08:27.818Z,30.32
2023-08-05T18:10:56.205Z,30.70
2023-08-05T18:13:25.283Z,30.83
2023-08-05T18:15:53.758Z,31.16
2023-08-05T18:18:22.207Z,31.43
2023-08-05T18:20:50.558Z,31.51
2023-08-05T18:23:18.925Z,31.81
2023-08-05T18:25:47.493Z,32.06
2023-08-05T18:28:15.885Z,32.16
2023-08-05T18:30:44.457Z,32.30
2023-08-05T18:33:15.118Z,32.51
2023-08-05T18:35:49.399Z,32.65
2023-08-05T18:38:18.084Z,33.03
2023-08-05T18:40:46.481Z,33.11
2023-08-05T18:43:14.915Z,33.26
2023-08-05T18:45:43.346Z,33.38
2023-08-05T18:48:11.848Z,33.72
2023-08-05T18:50:40.269Z,33.92
2023-08-05T18:53:08.699Z,34.05
2023-08-05T18:55:37.553Z,34.30
2023-08-05T18:58:06.086Z,34.31
2023-08-05T19:00:34.474Z,34.48
2023-08-05T19:03:02.947Z,34.54
2023-08-05T19:05:33.057Z,34.59
2023-08-05T19:08:01.574Z,34.74
2023-08-05T19:10:30.044Z,34.97
2023-08-05T19:12:58.598Z,35.28
2023-08-05T19:15:27.102Z,35.77
2023-08-05T19:17:55.454Z,36.13
2023-08-05T19:20:23.869Z,36.31
2023-08-05T19:22:52.213Z,36.33
2023-08-05T19:25:20.540Z,36.39
2023-08-05T19:27:54.757Z,36.65
2023-08-05T19:30:24.258Z,37.13
2023-08-05T19:32:55.872Z,37.23
2023-08-05T19:35:28.659Z,37.38
2023-08-05T19:37:57.095Z,37.61
2023-08-05T19:40:25.672Z,37.89
2023-08-05T19:42:54.096Z,37.89
2023-08-05T19:45:22.714Z,37.58
2023-08-05T19:47:51.235Z,37.46
2023-08-05T19:50:19.670Z,37.37
2023-08-05T19:52:48.350Z,37.41
2023-08-05T19:55:16.856Z,37.89
2023-08-05T19:57:45.274Z,38.07
2023-08-05T20:00:14.548Z,37.83
2023-08-05T20:02:44.076Z,37.98
2023-08-05T20:05:12.758Z,38.15
2023-08-05T20:07:41.341Z,38.21
2023-08-05T20:10:10.652Z,38.47
2023-08-05T20:12:40.185Z,38.63
2023-08-05T20:15:09.088Z,38.96
2023-08-05T20:17:38.788Z,39.10
2023-08-05T20:20:07.912Z,39.26
2023-08-05T20:22:36.300Z,39.40
2023-08-05T20:25:05.072Z,39.45
2023-08-05T20:27:33.452Z,39.66
2023-08-05T20:30:03.232Z,39.84
2023-08-05T20:32:31.723Z,39.82
2023-08-05T20:35:00.261Z,39.86
2023-08-05T20:37:28.940Z,40.08
2023-08-05T20:39:57.322Z,40.13
2023-08-05T20:42:25.716Z,40.20
2023-08-05T20:44:54.188Z,40.13
2023-08-05T20:47:24.926Z,40.27
2023-08-05T20:49:54.801Z,40.26
2023-08-05T20:52:23.194Z,40.40
2023-08-05T20:54:51.615Z,40.69
2023-08-05T20:57:21.156Z,40.84
2023-08-05T20:59:49.575Z,41.04
2023-08-05T21:02:19.823Z,40.99
2023-08-05T21:04:49.583Z,41.07
2023-08-05T21:07:18.072Z,40.77
2023-08-05T21:09:46.581Z,41.25
2023-08-05T21:12:18.803Z,41.30
2023-08-05T21:14:47.238Z,41.57
2023-08-05T21:17:15.689Z,41.80
2023-08-05T21:19:44.370Z,42.04
2023-08-05T21:22:12.841Z,42.15
2023-08-05T21:24:41.293Z,42.43
2023-08-05T21:27:09.661Z,42.75
2023-08-05T21:29:38.083Z,42.58
2023-08-05T21:32:07.186Z,42.98
2023-08-05T21:34:35.662Z,43.24
2023-08-05T21:37:04.492Z,43.42
2023-08-05T21:39:33.011Z,43.49
2023-08-05T21:42:01.501Z,43.86
2023-08-05T21:44:29.880Z,43.77
2023-08-05T21:46:58.326Z,44.33
2023-08-05T21:49:26.857Z,44.70
2023-08-05T21:51:55.410Z,44.86
2023-08-05T21:54:24.015Z,45.07
2023-08-05T21:56:53.726Z,45.01
2023-08-05T21:59:22.294Z,45.07
2023-08-05T22:01:50.775Z,45.48
2023-08-05T22:04:19.140Z,45.71
2023-08-05T22:06:47.553Z,45.79
2023-08-05T22:09:16.144Z,46.03
2023-08-05T22:11:44.651Z,45.92
2023-08-05T22:14:12.995Z,46.40
2023-08-05T22:16:41.454Z,46.43
2023-08-05T22:19:09.823Z,46.35
2023-08-05T22:21:38.249Z,46.61
2023-08-05T22:24:06.770Z,46.83
2023-08-05T22:26:35.164Z,47.01
2023-08-05T22:29:03.757Z,47.09
2023-08-05T22:31:32.194Z,47.01
2023-08-05T22:34:00.625Z,47.07
2023-08-05T22:36:29.043Z,47.02
2023-08-05T22:38:57.756Z,46.93
2023-08-05T22:41:26.329Z,47.54
2023-08-05T22:43:54.599Z,47.45
2023-08-05T22:46:22.950Z,47.58
2023-08-05T22:48:51.546Z,47.58
2023-08-05T22:51:19.881Z,47.88
2023-08-05T22:53:49.821Z,48.10
2023-08-05T22:56:18.182Z,48.47
2023-08-05T22:58:46.484Z,48.96
2023-08-05T23:01:14.986Z,48.89
2023-08-05T23:03:43.368Z,48.68
2023-08-05T23:06:18.833Z,48.95
2023-08-05T23:08:47.317Z,49.28
2023-08-05T23:11:15.984Z,49.57
2023-08-05T23:13:44.518Z,49.82
2023-08-05T23:16:19.213Z,49.62
2023-08-05T23:18:49.155Z,49.63
2023-08-05T23:21:17.769Z,49.57
2023-08-05T23:23:46.258Z,49.58
2023-08-05T23:26:14.810Z,49.75
2023-08-05T23:28:43.212Z,49.58
2023-08-05T23:31:11.832Z,49.77
2023-08-05T23:33:40.281Z,49.88
2023-08-05T23:36:08.859Z,50.05
2023-08-05T23:38:37.297Z,50.40
2023-08-05T23:41:05.792Z,50.39
2023-08-05T23:43:34.167Z,50.54
2023-08-05T23:46:02.522Z,50.40
2023-08-05T23:48:30.984Z,50.64
2023-08-05T23:50:59.329Z,50.64
2023-08-05T23:53:27.817Z,51.00
2023-08-05T23:55:56.251Z,51.19
2023-08-05T23:58:24.967Z,51.04
